Time;durP1;ratioP1;P1;durP2;ratioP2;P2;SDS_P1;SDS_P2;PMS_P1;PMS_P2;Temp;Humidity;BMP_temperature;BMP_pressure;BME280_temperature;BME280_humidity;BME280_pressure;Samples;Min_cycle;Max_cycle;Signal;HPM_P1;HPM_P2
2022/10/24 00:00:47;;;;;;;2.40;1.80;;;23.80;54.90;;;;;;5078222;28;20047;-39
2022/10/24 00:03:13;;;;;;;2.42;1.67;;;23.70;54.80;;;;;;5100516;28;20038;-38
2022/10/24 00:05:43;;;;;;;2.40;1.67;;;23.70;54.80;;;;;;5100785;28;20028;-38
2022/10/24 00:08:10;;;;;;;3.05;1.52;;;23.70;54.80;;;;;;5100253;28;20067;-38
2022/10/24 00:10:36;;;;;;;3.67;1.85;;;23.70;54.80;;;;;;5100652;28;20043;-37
2022/10/24 00:13:02;;;;;;;2.00;1.80;;;23.70;54.80;;;;;;5101532;28;20070;-39
2022/10/24 00:15:29;;;;;;;2.17;1.90;;;23.70;54.80;;;;;;5102792;28;20039;-38
2022/10/24 00:17:55;;;;;;;3.17;2.27;;;23.70;54.80;;;;;;5102908;28;20028;-38
2022/10/24 00:20:21;;;;;;;4.35;2.10;;;23.70;54.70;;;;;;5103976;28;20032;-38
2022/10/24 00:22:47;;;;;;;2.78;2.20;;;23.70;55.10;;;;;;5100285;28;20031;-37
2022/10/24 00:25:13;;;;;;;3.17;2.30;;;23.60;54.70;;;;;;5101895;28;20059;-38
2022/10/24 00:27:39;;;;;;;2.25;2.05;;;23.60;54.70;;;;;;5099404;28;20028;-38
2022/10/24 00:30:06;;;;;;;2.28;2.08;;;23.60;54.60;;;;;;5102984;28;20060;-38
2022/10/24 00:32:32;;;;;;;2.88;2.33;;;23.60;54.70;;;;;;5098854;28;20047;-39
2022/10/24 00:34:58;;;;;;;4.38;2.20;;;23.60;54.70;;;;;;5102963;28;20614;-38
2022/10/24 00:37:24;;;;;;;4.53;2.20;;;23.50;54.60;;;;;;5101636;28;20039;-38
2022/10/24 00:39:50;;;;;;;2.53;2.30;;;23.60;54.90;;;;;;5103347;28;20100;-38
2022/10/24 00:42:16;;;;;;;5.45;2.28;;;23.60;55.00;;;;;;5096778;28;20029;-38
2022/10/24 00:44:43;;;;;;;2.30;2.10;;;23.60;55.00;;;;;;5102806;28;20023;-38
2022/10/24 00:47:14;;;;;;;2.75;2.25;;;23.50;55.00;;;;;;5104527;28;20064;-38
2022/10/24 00:50:05;;;;;;;2.15;1.63;;;23.50;54.90;;;;;;5104561;28;20051;-38
2022/10/24 00:52:34;;;;;;;2.00;1.80;;;23.50;54.90;;;;;;5134940;27;20031;-37
2022/10/24 00:55:00;;;;;;;2.30;1.83;;;23.50;55.40;;;;;;5133656;27;20027;-39
2022/10/24 00:57:31;;;;;;;2.23;2.00;;;23.50;54.80;;;;;;5090719;28;20108;-38
2022/10/24 01:00:00;;;;;;;2.58;1.77;;;23.50;55.40;;;;;;5101296;28;20058;-38
2022/10/24 01:02:27;;;;;;;2.40;1.88;;;23.50;54.90;;;;;;5111180;28;20032;-37
2022/10/24 01:04:53;;;;;;;1.75;1.65;;;23.40;54.80;;;;;;5105944;28;20119;-37
2022/10/24 01:07:46;;;;;;;1.70;1.60;;;23.40;54.80;;;;;;5102754;28;20024;-37
2022/10/24 01:10:28;;;;;;;1.88;1.60;;;23.40;54.80;;;;;;5130928;27;20476;-41
2022/10/24 01:13:09;;;;;;;6.40;2.60;;;23.40;54.80;;;;;;5131891;27;20071;-37
2022/10/24 01:15:49;;;;;;;6.68;2.33;;;23.40;55.80;;;;;;5114603;27;20036;-36
2022/10/24 01:18:23;;;;;;;5.60;2.20;;;23.30;55.80;;;;;;5097467;28;20091;-37
2022/10/24 01:21:14;;;;;;;6.18;2.47;;;23.30;55.80;;;;;;5108592;28;20028;-38
2022/10/24 01:24:07;;;;;;;4.07;2.30;;;23.30;55.70;;;;;;5096476;28;20031;-37
2022/10/24 01:27:01;;;;;;;7.43;2.50;;;23.30;55.60;;;;;;5107668;27;20064;-38
2022/10/24 01:30:07;;;;;;;2.75;1.80;;;23.30;55.60;;;;;;5118901;27;20161;-47
2022/10/24 01:32:51;;;;;;;3.08;2.00;;;23.30;55.50;;;;;;5125258;27;20039;-38
2022/10/24 01:35:17;;;;;;;3.08;1.80;;;23.30;55.50;;;;;;5098570;28;20036;-49
2022/10/24 01:38:12;;;;;;;2.47;1.80;;;23.30;55.40;;;;;;5105032;28;20028;-36
2022/10/24 01:40:44;;;;;;;2.72;1.90;;;23.30;55.30;;;;;;5094797;28;20043;-39
2022/10/24 01:43:11;;;;;;;3.03;1.85;;;23.20;55.30;;;;;;5096258;28;20613;-37
2022/10/24 01:45:38;;;;;;;1.95;1.50;;;23.20;55.30;;;;;;5090680;28;20829;-38
2022/10/24 01:48:05;;;;;;;;;;;23.20;55.20;;;;;;5111971;28;20035;-37
2022/10/24 01:50:32;;;;;;;2.08;1.60;;;23.20;55.20;;;;;;5094235;28;19920;-38
2022/10/24 01:52:58;;;;;;;1.63;1.50;;;23.20;55.20;;;;;;5132505;27;20030;-38
2022/10/24 01:55:24;;;;;;;2.15;1.58;;;23.10;55.20;;;;;;5092673;28;20101;-38
2022/10/24 01:57:50;;;;;;;1.42;1.20;;;23.10;55.20;;;;;;5099756;28;20083;-38
2022/10/24 02:00:20;;;;;;;2.42;1.65;;;23.10;55.10;;;;;;5094994;28;20031;-37
2022/10/24 02:02:50;;;;;;;2.85;1.60;;;23.10;55.20;;;;;;5099679;28;20066;-36
2022/10/24 02:05:37;;;;;;;2.72;1.65;;;23.10;55.30;;;;;;5125972;27;20025;-36
2022/10/24 02:08:09;;;;;;;2.35;1.50;;;23.00;55.40;;;;;;5097295;28;20582;-40
2022/10/24 02:10:39;;;;;;;2.10;1.50;;;23.00;55.50;;;;;;5106164;28;20717;-40
2022/10/24 02:13:16;;;;;;;3.17;1.77;;;23.00;55.50;;;;;;5109168;28;20036;-36
2022/10/24 02:15:48;;;;;;;2.33;1.80;;;23.00;55.50;;;;;;5122978;27;20703;-35
2022/10/24 02:18:14;;;;;;;4.13;1.73;;;23.00;55.50;;;;;;5134577;27;20024;-35
2022/10/24 02:20:53;;;;;;;2.03;1.30;;;22.90;55.40;;;;;;5118166;28;20027;-35
2022/10/24 02:23:45;;;;;;;2.03;1.85;;;22.90;55.40;;;;;;5089611;28;20035;-36
2022/10/24 02:26:22;;;;;;;2.20;1.60;;;22.90;55.40;;;;;;5081621;28;20042;-37
2022/10/24 02:28:48;;;;;;;1.83;1.58;;;22.90;55.40;;;;;;5093119;28;20039;-36
2022/10/24 02:31:17;;;;;;;2.60;1.50;;;22.90;55.30;;;;;;5100287;28;20043;-36
2022/10/24 02:33:44;;;;;;;2.15;1.88;;;22.90;55.40;;;;;;5110087;28;20100;-37
2022/10/24 02:36:11;;;;;;;2.08;1.60;;;22.80;55.30;;;;;;5102780;28;20027;-38
2022/10/24 02:38:38;;;;;;;1.58;1.40;;;22.80;55.30;;;;;;5139573;27;20043;-36
2022/10/24 02:41:14;;;;;;;2.08;1.50;;;22.80;55.30;;;;;;5137753;27;20028;-36
2022/10/24 02:43:40;;;;;;;2.38;1.50;;;22.80;55.30;;;;;;5134682;27;20095;-36
2022/10/24 02:46:06;;;;;;;2.40;1.60;;;22.80;55.30;;;;;;5115938;28;20053;-37
2022/10/24 02:48:35;;;;;;;1.63;1.40;;;22.70;55.30;;;;;;5115637;28;20034;-36
2022/10/24 02:51:01;;;;;;;1.75;1.60;;;22.70;55.30;;;;;;5113899;28;20031;-37
2022/10/24 02:53:27;;;;;;;1.85;1.45;;;22.70;55.30;;;;;;5090189;28;20028;-36
2022/10/24 02:55:53;;;;;;;1.92;1.65;;;22.70;55.30;;;;;;5093529;28;20125;-37
2022/10/24 02:58:20;;;;;;;1.40;1.30;;;22.70;55.30;;;;;;5131804;27;20079;-37
2022/10/24 03:00:46;;;;;;;1.60;1.50;;;22.60;55.30;;;;;;5085559;28;20050;-38
2022/10/24 03:03:12;;;;;;;1.70;1.60;;;22.60;55.30;;;;;;5098835;28;20059;-38
2022/10/24 03:05:38;;;;;;;1.60;1.27;;;22.60;55.40;;;;;;5099384;28;20039;-38
2022/10/24 03:08:04;;;;;;;1.80;1.63;;;22.60;55.40;;;;;;5100456;28;20032;-38
2022/10/24 03:10:31;;;;;;;1.50;1.27;;;22.60;55.40;;;;;;5091448;28;20036;-40
2022/10/24 03:12:57;;;;;;;2.03;1.27;;;22.50;55.40;;;;;;5098069;28;20222;-37
2022/10/24 03:15:23;;;;;;;1.55;1.38;;;22.50;55.50;;;;;;5093887;28;20743;-37
2022/10/24 03:17:49;;;;;;;1.58;1.27;;;22.50;56.40;;;;;;5102109;28;20078;-37
2022/10/24 03:20:15;;;;;;;1.95;1.42;;;22.50;55.90;;;;;;5102496;28;20031;-38
2022/10/24 03:22:41;;;;;;;1.50;1.25;;;22.50;55.90;;;;;;5101407;28;20098;-39
2022/10/24 03:25:10;;;;;;;1.42;1.33;;;22.50;55.80;;;;;;5108095;28;20111;-39
2022/10/24 03:27:36;;;;;;;1.65;1.45;;;22.50;55.80;;;;;;5134147;27;20043;-39
2022/10/24 03:30:03;;;;;;;1.73;1.33;;;22.50;55.80;;;;;;5098593;28;20032;-38
2022/10/24 03:32:29;;;;;;;1.60;1.50;;;22.50;55.80;;;;;;5092246;28;20044;-43
2022/10/24 03:34:55;;;;;;;1.85;1.50;;;22.40;55.70;;;;;;5098127;28;20032;-38
2022/10/24 03:37:21;;;;;;;2.22;1.52;;;22.40;55.70;;;;;;5108551;28;20051;-39
2022/10/24 03:39:48;;;;;;;1.45;1.35;;;22.40;55.70;;;;;;5099837;28;20052;-38
2022/10/24 03:42:14;;;;;;;1.33;1.10;;;22.40;55.70;;;;;;5100353;28;20053;-38
2022/10/24 03:44:40;;;;;;;1.70;1.45;;;22.40;55.70;;;;;;5098824;28;20450;-37
2022/10/24 03:47:06;;;;;;;1.30;1.20;;;22.30;55.70;;;;;;5095031;28;20035;-38
2022/10/24 03:49:32;;;;;;;1.55;1.45;;;22.30;55.70;;;;;;5101076;28;20040;-37
2022/10/24 03:51:59;;;;;;;1.65;1.48;;;22.30;55.70;;;;;;5096130;28;20489;-38
2022/10/24 03:54:25;;;;;;;1.60;1.40;;;22.30;55.70;;;;;;5097856;28;20093;-37
2022/10/24 03:56:51;;;;;;;1.58;1.45;;;22.30;55.70;;;;;;5108171;28;20712;-37
2022/10/24 03:59:17;;;;;;;1.80;1.40;;;22.30;55.70;;;;;;5095974;28;20035;-37
2022/10/24 04:01:43;;;;;;;1.70;1.40;;;22.20;55.70;;;;;;5089060;28;20042;-37
2022/10/24 04:04:09;;;;;;;1.80;1.50;;;22.20;55.70;;;;;;5105233;28;20172;-37
2022/10/24 04:06:35;;;;;;;1.73;1.50;;;22.20;55.70;;;;;;5103814;28;20032;-37
2022/10/24 04:09:02;;;;;;;1.77;1.55;;;22.20;55.70;;;;;;5118742;28;20050;-37
2022/10/24 04:11:28;;;;;;;1.50;1.30;;;22.10;55.70;;;;;;5113799;28;20040;-40
2022/10/24 04:13:54;;;;;;;2.00;1.63;;;22.10;55.90;;;;;;5102389;28;20040;-37
2022/10/24 04:16:22;;;;;;;1.67;1.55;;;22.10;56.00;;;;;;5125923;28;20788;-38
2022/10/24 04:18:50;;;;;;;1.73;1.60;;;22.10;56.50;;;;;;5103502;28;20028;-37
2022/10/24 04:21:16;;;;;;;2.47;1.35;;;22.10;56.00;;;;;;5119947;28;20039;-37
2022/10/24 04:23:43;;;;;;;1.90;1.67;;;22.00;56.00;;;;;;5104067;28;20095;-37
2022/10/24 04:26:13;;;;;;;2.05;1.50;;;22.00;55.90;;;;;;5091639;28;20079;-37
2022/10/24 04:28:39;;;;;;;1.70;1.60;;;22.00;56.00;;;;;;5102885;28;20028;-37
2022/10/24 04:31:06;;;;;;;1.63;1.42;;;22.00;56.00;;;;;;5084958;28;20072;-38
2022/10/24 04:33:32;;;;;;;2.05;1.50;;;22.00;56.00;;;;;;5099880;28;20036;-38
2022/10/24 04:35:58;;;;;;;1.80;1.40;;;21.90;55.90;;;;;;5102680;28;20050;-38
2022/10/24 04:38:24;;;;;;;1.90;1.70;;;21.90;56.00;;;;;;5098199;28;20044;-35
2022/10/24 04:40:51;;;;;;;2.03;1.40;;;21.90;56.00;;;;;;5102399;28;20033;-37
2022/10/24 04:43:17;;;;;;;;;;;21.90;55.90;;;;;;5102875;28;20032;-37
2022/10/24 04:45:44;;;;;;;1.38;1.20;;;21.80;55.90;;;;;;5098691;28;19915;-37
2022/10/24 04:48:10;;;;;;;1.95;1.55;;;21.80;55.90;;;;;;5096109;28;20047;-37
2022/10/24 04:50:36;;;;;;;1.50;1.40;;;21.80;55.90;;;;;;5119313;28;20134;-37
2022/10/24 04:53:02;;;;;;;2.70;1.50;;;21.80;55.90;;;;;;5106028;28;20051;-37
2022/10/24 04:55:28;;;;;;;2.05;1.60;;;21.70;55.80;;;;;;5099618;28;20032;-37
2022/10/24 04:57:54;;;;;;;1.95;1.80;;;21.80;55.90;;;;;;5101317;28;20047;-35
2022/10/24 05:00:21;;;;;;;2.15;1.58;;;21.70;55.80;;;;;;5131902;27;20580;-36
2022/10/24 05:02:47;;;;;;;1.95;1.65;;;21.70;55.80;;;;;;5097632;28;20055;-36
2022/10/24 05:05:13;;;;;;;1.92;1.45;;;21.70;56.20;;;;;;5099890;28;20101;-36
2022/10/24 05:07:39;;;;;;;2.42;1.67;;;21.70;56.40;;;;;;5098807;28;20038;-36
2022/10/24 05:10:05;;;;;;;1.83;1.60;;;21.60;56.40;;;;;;5106057;28;20039;-35
2022/10/24 05:12:31;;;;;;;1.53;1.43;;;21.70;56.40;;;;;;5092212;28;20498;-38
2022/10/24 05:14:58;;;;;;;1.92;1.70;;;21.60;56.30;;;;;;5101231;28;20368;-38
2022/10/24 05:17:24;;;;;;;2.30;1.80;;;21.60;56.40;;;;;;5096126;28;20034;-38
2022/10/24 05:19:50;;;;;;;2.00;1.77;;;21.60;56.30;;;;;;5097098;28;20096;-39
2022/10/24 05:22:16;;;;;;;1.77;1.65;;;21.60;56.30;;;;;;5103998;28;20123;-38
2022/10/24 05:24:42;;;;;;;1.52;1.42;;;21.50;56.30;;;;;;5097174;28;20091;-37
2022/10/24 05:27:08;;;;;;;1.70;1.50;;;21.50;56.30;;;;;;5108289;28;20032;-38
2022/10/24 05:29:34;;;;;;;1.98;1.60;;;21.50;56.30;;;;;;5110551;28;20131;-38
2022/10/24 05:32:00;;;;;;;1.67;1.50;;;21.50;56.30;;;;;;5097204;28;20024;-37
2022/10/24 05:34:26;;;;;;;1.80;1.67;;;21.40;56.30;;;;;;5099655;28;20032;-37
2022/10/24 05:36:53;;;;;;;1.85;1.63;;;21.40;56.30;;;;;;5107520;28;20034;-37
2022/10/24 05:39:19;;;;;;;2.03;1.48;;;21.40;56.30;;;;;;5094613;28;20024;-37
2022/10/24 05:45:08;;;;;;;1.90;1.60;;;21.30;56.30;;;;;;5099244;28;20034;-37
2022/10/24 05:47:34;;;;;;;3.15;1.50;;;21.30;56.40;;;;;;5087897;28;20020;-38
2022/10/24 05:50:00;;;;;;;1.67;1.48;;;21.30;56.40;;;;;;5097832;28;20032;-38
2022/10/24 05:52:26;;;;;;;1.77;1.63;;;21.30;56.40;;;;;;5091767;28;20029;-38
2022/10/24 05:54:52;;;;;;;1.80;1.58;;;21.20;56.40;;;;;;5104844;28;20035;-37
2022/10/24 05:57:19;;;;;;;1.60;1.50;;;21.20;56.50;;;;;;5089387;28;20035;-37
2022/10/24 05:59:45;;;;;;;2.10;1.77;;;21.20;56.60;;;;;;5096430;28;20032;-37
2022/10/24 06:02:18;;;;;;;1.47;1.37;;;21.20;56.70;;;;;;5096529;28;20054;-37
2022/10/24 06:04:44;;;;;;;2.60;1.45;;;21.20;56.70;;;;;;5103014;28;20315;-37
2022/10/24 06:07:10;;;;;;;2.60;1.85;;;21.20;56.60;;;;;;5098573;28;20050;-36
2022/10/24 06:09:36;;;;;;;2.00;1.80;;;21.10;56.60;;;;;;5101182;28;20058;-35
2022/10/24 06:12:03;;;;;;;2.00;1.63;;;21.10;56.60;;;;;;5104498;28;20029;-35
2022/10/24 06:14:29;;;;;;;2.05;1.60;;;21.10;56.60;;;;;;5128116;27;20059;-39
2022/10/24 06:16:55;;;;;;;2.08;1.60;;;21.10;56.60;;;;;;5090213;28;20058;-38
2022/10/24 06:19:21;;;;;;;1.90;1.70;;;21.00;56.50;;;;;;5094569;28;20055;-38
2022/10/24 06:21:47;;;;;;;1.50;1.40;;;21.00;56.50;;;;;;5097866;28;20024;-38
2022/10/24 06:24:13;;;;;;;2.80;1.42;;;21.00;56.50;;;;;;5094243;28;20067;-35
2022/10/24 06:26:39;;;;;;;2.00;1.58;;;21.00;56.60;;;;;;5109161;28;20096;-35
2022/10/24 06:29:05;;;;;;;2.78;2.58;;;20.90;56.60;;;;;;5103619;28;20032;-37
2022/10/24 06:31:34;;;;;;;3.08;2.78;;;20.90;56.80;;;;;;5113466;28;20392;-37
2022/10/24 06:34:00;;;;;;;2.72;2.17;;;20.90;56.90;;;;;;5120183;27;20090;-37
2022/10/24 06:36:26;;;;;;;3.15;2.40;;;20.90;57.00;;;;;;5099229;28;20103;-36
2022/10/24 06:38:56;;;;;;;2.42;2.22;;;20.90;56.90;;;;;;5087690;28;20066;-35
2022/10/24 06:41:22;;;;;;;2.67;2.28;;;20.90;56.90;;;;;;5115956;28;20035;-35
2022/10/24 06:43:48;;;;;;;2.80;2.33;;;20.90;56.90;;;;;;5092046;28;20028;-35
2022/10/24 06:46:15;;;;;;;2.17;1.92;;;20.90;57.00;;;;;;5109660;28;20036;-35
2022/10/24 06:48:41;;;;;;;3.67;2.40;;;20.90;57.00;;;;;;5098360;28;20028;-35
2022/10/24 06:51:07;;;;;;;3.28;2.90;;;20.90;57.10;;;;;;5095681;28;20070;-35
2022/10/24 06:53:34;;;;;;;3.72;3.00;;;20.90;57.20;;;;;;5095776;28;20054;-35
2022/10/24 06:56:01;;;;;;;2.60;2.40;;;20.90;57.20;;;;;;5097968;28;20028;-36
2022/10/24 06:58:31;;;;;;;;;;;20.90;57.20;;;;;;5097086;28;20030;-35
2022/10/24 07:00:57;;;;;;;2.58;2.30;;;20.80;57.10;;;;;;5100977;28;19912;-38
2022/10/24 07:03:23;;;;;;;2.50;2.28;;;20.90;57.10;;;;;;5093764;28;20424;-37
2022/10/24 07:05:49;;;;;;;2.63;2.42;;;20.80;57.00;;;;;;5089431;28;20036;-37
2022/10/24 07:08:15;;;;;;;3.50;2.08;;;20.80;57.00;;;;;;5087996;28;20032;-38
2022/10/24 07:10:42;;;;;;;3.35;2.90;;;20.80;56.90;;;;;;5100398;28;20060;-38
2022/10/24 07:13:08;;;;;;;5.97;3.33;;;20.80;57.20;;;;;;5098853;28;20044;-38
2022/10/24 07:15:34;;;;;;;3.17;2.83;;;20.80;57.40;;;;;;5088643;28;20020;-36
2022/10/24 07:18:00;;;;;;;2.42;2.22;;;20.80;57.30;;;;;;5103654;28;20032;-36
2022/10/24 07:20:26;;;;;;;2.30;2.10;;;20.80;57.30;;;;;;5095452;28;20095;-35
2022/10/24 07:22:52;;;;;;;2.55;2.28;;;20.80;57.30;;;;;;5102934;28;20028;-36
2022/10/24 07:25:18;;;;;;;2.45;2.20;;;20.80;57.30;;;;;;5105696;28;20032;-35
2022/10/24 07:27:44;;;;;;;2.47;2.25;;;20.70;57.20;;;;;;5106837;28;20032;-35
2022/10/24 07:30:17;;;;;;;3.72;2.75;;;20.70;57.10;;;;;;5104770;28;20127;-35
2022/10/24 07:32:43;;;;;;;4.00;2.70;;;20.70;57.20;;;;;;5131266;27;20043;-35
2022/10/24 07:35:11;;;;;;;4.20;2.72;;;20.70;57.40;;;;;;5100280;28;20035;-35
2022/10/24 07:37:37;;;;;;;3.22;2.63;;;20.70;57.50;;;;;;5116941;28;20016;-35
2022/10/24 07:40:04;;;;;;;2.55;2.20;;;20.70;57.50;;;;;;5106729;28;20088;-35
2022/10/24 07:42:30;;;;;;;2.47;2.00;;;20.80;57.50;;;;;;5106099;28;20551;-34
2022/10/24 07:44:56;;;;;;;3.03;2.58;;;20.70;57.40;;;;;;5112356;28;20032;-36
2022/10/24 07:47:22;;;;;;;3.28;1.95;;;20.70;57.50;;;;;;5104964;28;20020;-35
2022/10/24 07:49:48;;;;;;;3.40;2.30;;;20.70;57.30;;;;;;5104461;28;20108;-35
2022/10/24 07:52:14;;;;;;;3.70;2.70;;;20.70;57.30;;;;;;5112284;28;20039;-38
2022/10/24 07:54:40;;;;;;;4.50;2.92;;;20.70;57.40;;;;;;5104597;28;20016;-36
2022/10/24 07:57:07;;;;;;;2.75;2.45;;;20.70;57.60;;;;;;5103930;28;20819;-35
2022/10/24 07:59:33;;;;;;;3.30;2.78;;;20.70;57.40;;;;;;5135665;27;20028;-36
2022/10/24 08:01:59;;;;;;;3.20;2.25;;;20.70;57.30;;;;;;5090840;28;20103;-36
2022/10/24 08:04:25;;;;;;;3.67;2.00;;;20.70;57.20;;;;;;5104142;28;20033;-37
2022/10/24 08:06:51;;;;;;;2.40;2.20;;;20.70;58.00;;;;;;5098234;28;20032;-36
2022/10/24 08:09:17;;;;;;;3.05;2.47;;;20.70;58.00;;;;;;5107670;28;20024;-37
2022/10/24 08:11:43;;;;;;;3.90;2.25;;;20.70;58.00;;;;;;5102693;28;20049;-37
2022/10/24 08:14:10;;;;;;;3.05;2.20;;;20.70;58.20;;;;;;5096681;28;20048;-36
2022/10/24 08:16:37;;;;;;;6.40;3.00;;;20.70;58.20;;;;;;5124735;27;20058;-35
2022/10/24 08:19:03;;;;;;;6.53;2.95;;;20.70;58.30;;;;;;5085709;28;20036;-35
2022/10/24 08:21:30;;;;;;;11.90;3.67;;;20.70;58.40;;;;;;5115551;28;20038;-35
2022/10/24 08:23:56;;;;;;;6.32;2.80;;;20.70;58.40;;;;;;5100327;28;20230;-38
2022/10/24 08:26:23;;;;;;;11.50;3.08;;;20.70;58.40;;;;;;5117925;28;20024;-35
2022/10/24 08:28:50;;;;;;;11.10;3.63;;;20.70;58.50;;;;;;5103472;28;20028;-38
2022/10/24 08:31:17;;;;;;;25.00;5.63;;;20.80;58.80;;;;;;5102449;28;20050;-35
2022/10/24 08:33:44;;;;;;;11.65;4.30;;;20.80;59.80;;;;;;5134463;27;20112;-35
2022/10/24 08:36:30;;;;;;;15.85;4.88;;;20.80;59.50;;;;;;5111370;28;20024;-35
2022/10/24 08:38:56;;;;;;;13.60;4.15;;;20.70;59.10;;;;;;5103746;28;20035;-34
2022/10/24 08:41:25;;;;;;;13.25;3.88;;;20.70;58.90;;;;;;5101434;28;20735;-34
2022/10/24 08:43:52;;;;;;;7.88;3.60;;;20.70;58.60;;;;;;5102565;28;20032;-34
2022/10/24 08:46:18;;;;;;;9.80;4.05;;;20.70;58.50;;;;;;5097409;28;20070;-35
2022/10/24 08:48:49;;;;;;;6.63;3.45;;;20.70;58.30;;;;;;5100651;28;20124;-35
2022/10/24 08:51:53;;;;;;;5.93;3.38;;;20.70;58.20;;;;;;5106733;27;20052;-35
2022/10/24 08:54:22;;;;;;;8.07;3.65;;;20.70;58.00;;;;;;5123809;27;20385;-35
2022/10/24 08:56:48;;;;;;;7.53;3.83;;;20.70;57.80;;;;;;5083344;28;20048;-35
2022/10/24 08:59:14;;;;;;;7.28;3.90;;;20.60;57.70;;;;;;5093448;28;20028;-35
2022/10/24 09:01:51;;;;;;;6.32;3.25;;;20.60;57.60;;;;;;5101314;28;20039;-34
2022/10/24 09:04:19;;;;;;;5.72;3.38;;;20.60;57.50;;;;;;5103292;28;20032;-34
2022/10/24 09:06:45;;;;;;;5.00;3.45;;;20.60;57.60;;;;;;5134208;27;20089;-34
2022/10/24 09:09:21;;;;;;;5.27;3.37;;;20.60;57.70;;;;;;5103625;28;20129;-34
2022/10/24 09:11:49;;;;;;;5.40;3.30;;;20.60;57.70;;;;;;5136010;27;20345;-35
2022/10/24 09:14:20;;;;;;;6.55;3.38;;;20.60;57.50;;;;;;5115155;28;20654;-35
2022/10/24 09:16:57;;;;;;;3.75;3.22;;;20.60;57.40;;;;;;5104431;28;20095;-34
2022/10/24 09:19:25;;;;;;;5.00;3.30;;;20.60;57.30;;;;;;5102669;28;20030;-34
2022/10/24 09:21:52;;;;;;;4.28;3.30;;;20.50;57.20;;;;;;5104603;28;20032;-34
2022/10/24 09:24:21;;;;;;;;;;;20.50;57.20;;;;;;5100495;28;20028;-34
2022/10/24 09:26:47;;;;;;;4.80;3.05;;;20.50;57.30;;;;;;5105154;28;19912;-33
2022/10/24 09:29:13;;;;;;;4.18;3.30;;;20.50;57.40;;;;;;5103051;28;20032;-33
2022/10/24 09:31:39;;;;;;;4.03;3.05;;;20.50;57.50;;;;;;5104063;28;20051;-33
2022/10/24 09:34:05;;;;;;;4.28;3.08;;;20.50;57.40;;;;;;5101763;28;20024;-33
2022/10/24 09:36:31;;;;;;;3.65;3.13;;;20.50;57.30;;;;;;5102780;28;20047;-34
2022/10/24 09:39:01;;;;;;;5.55;3.03;;;20.50;57.20;;;;;;5103285;28;20035;-34
2022/10/24 09:41:28;;;;;;;3.33;3.03;;;20.40;57.10;;;;;;5098816;28;20027;-35
2022/10/24 09:43:56;;;;;;;3.33;2.90;;;20.40;57.30;;;;;;5104472;28;20062;-34
2022/10/24 09:46:43;;;;;;;3.30;2.88;;;20.40;57.40;;;;;;5096158;28;20164;-34
2022/10/24 09:49:13;;;;;;;3.78;2.90;;;20.40;57.50;;;;;;5127096;27;20043;-34
2022/10/24 09:51:45;;;;;;;3.42;3.13;;;20.40;57.40;;;;;;5097384;28;20032;-34
2022/10/24 09:54:20;;;;;;;5.25;3.10;;;20.40;57.30;;;;;;5112672;27;20021;-35
2022/10/24 09:56:59;;;;;;;5.10;3.35;;;20.40;57.30;;;;;;5092079;28;20099;-35
2022/10/24 09:59:40;;;;;;;3.72;2.80;;;20.40;57.10;;;;;;5101510;28;20032;-35
2022/10/24 10:02:11;;;;;;;3.50;3.15;;;20.30;57.00;;;;;;5093125;28;20032;-34
2022/10/24 10:04:37;;;;;;;4.32;3.10;;;20.30;57.20;;;;;;5102442;28;20036;-34
2022/10/24 10:07:11;;;;;;;4.22;3.03;;;20.30;57.30;;;;;;5108962;28;20031;-34
2022/10/24 10:09:41;;;;;;;2.97;2.67;;;20.30;57.40;;;;;;5101149;28;20024;-34
2022/10/24 10:12:24;;;;;;;6.00;2.80;;;20.30;57.40;;;;;;5100735;28;20055;-36
2022/10/24 10:14:50;;;;;;;5.70;3.20;;;20.30;57.40;;;;;;5096122;28;20032;-41
2022/10/24 10:17:27;;;;;;;6.90;3.05;;;20.30;58.50;;;;;;5101030;28;20055;-35
2022/10/24 10:19:56;;;;;;;4.90;3.28;;;20.40;58.30;;;;;;5101301;28;20515;-34
2022/10/24 10:22:30;;;;;;;4.72;3.05;;;20.40;58.90;;;;;;5117518;27;20029;-34
2022/10/24 10:24:57;;;;;;;4.28;3.22;;;20.50;59.40;;;;;;5096863;28;20103;-41
2022/10/24 10:27:37;;;;;;;4.77;2.90;;;20.60;59.80;;;;;;5095782;28;20078;-37
2022/10/24 10:30:14;;;;;;;4.50;2.65;;;20.60;59.70;;;;;;5094855;28;20942;-38
2022/10/24 10:32:46;;;;;;;4.82;2.33;;;20.70;59.70;;;;;;5096453;28;20032;-37
2022/10/24 10:35:26;;;;;;;2.95;2.58;;;20.70;60.00;;;;;;5106541;28;20069;-39
2022/10/24 10:38:16;;;;;;;3.85;2.80;;;20.80;59.90;;;;;;5103353;28;20066;-41
2022/10/24 10:40:44;;;;;;;3.97;2.78;;;20.90;59.80;;;;;;5100493;28;20028;-39
2022/10/24 10:43:29;;;;;;;4.97;2.42;;;20.90;60.70;;;;;;5093153;28;20062;-38
2022/10/24 10:46:10;;;;;;;4.63;2.80;;;21.00;60.00;;;;;;5108805;28;20051;-38
2022/10/24 10:48:43;;;;;;;6.68;2.67;;;21.10;60.10;;;;;;5099474;28;20036;-38
2022/10/24 10:51:18;;;;;;;6.47;3.10;;;21.20;60.20;;;;;;5092660;28;20036;-37
2022/10/24 10:54:27;;;;;;;7.18;2.85;;;21.20;59.80;;;;;;5098816;28;20053;-35
2022/10/24 10:56:59;;;;;;;6.60;2.72;;;21.30;59.60;;;;;;5058227;28;20062;-35
2022/10/24 10:59:47;;;;;;;3.90;2.60;;;21.30;59.30;;;;;;5103013;28;20028;-35
2022/10/24 11:02:41;;;;;;;3.78;2.65;;;21.30;59.10;;;;;;5134229;27;20100;-35
2022/10/24 11:05:15;;;;;;;2.95;2.65;;;21.40;58.80;;;;;;5115490;28;20050;-35
2022/10/24 11:07:44;;;;;;;5.15;2.80;;;21.40;58.90;;;;;;5103098;28;20796;-35
2022/10/24 11:10:12;;;;;;;3.90;2.78;;;21.50;58.90;;;;;;5102958;28;20055;-35
2022/10/24 11:12:42;;;;;;;3.10;2.63;;;21.50;58.60;;;;;;5097073;28;20382;-35
2022/10/24 11:15:18;;;;;;;3.15;2.70;;;21.50;58.40;;;;;;5081506;28;20033;-35
2022/10/24 11:18:21;;;;;;;3.38;2.92;;;21.50;58.30;;;;;;5081345;28;20075;-35
2022/10/24 11:20:51;;;;;;;3.50;2.58;;;21.50;58.10;;;;;;5082447;28;20029;-35
2022/10/24 11:23:39;;;;;;;2.90;2.60;;;21.50;57.90;;;;;;5082996;28;20060;-35
2022/10/24 11:26:21;;;;;;;2.72;2.50;;;21.60;57.90;;;;;;5101547;28;20444;-36
2022/10/24 11:29:02;;;;;;;2.90;2.58;;;21.60;57.90;;;;;;5135633;28;20084;-35
2022/10/24 11:31:39;;;;;;;2.72;2.47;;;21.60;57.80;;;;;;5101605;28;20066;-35
2022/10/24 11:34:18;;;;;;;3.20;2.58;;;21.60;57.60;;;;;;5116466;28;20032;-35
2022/10/24 11:37:26;;;;;;;2.95;2.63;;;21.70;57.50;;;;;;5098760;28;20596;-35
2022/10/24 11:40:19;;;;;;;2.97;2.72;;;21.60;57.30;;;;;;5072079;28;20032;-35
2022/10/24 11:43:20;;;;;;;3.17;2.60;;;21.70;57.30;;;;;;5075428;28;20107;-35
2022/10/24 11:45:57;;;;;;;2.95;2.70;;;21.70;57.30;;;;;;5079845;28;20096;-35
2022/10/24 11:48:45;;;;;;;2.92;2.72;;;21.70;57.40;;;;;;5091270;28;20100;-35
2022/10/24 11:51:45;;;;;;;3.20;2.90;;;21.70;57.20;;;;;;5099491;28;20143;-35
2022/10/24 11:54:29;;;;;;;2.72;2.45;;;21.70;57.00;;;;;;5088389;28;20102;-35
2022/10/24 11:57:02;;;;;;;3.22;2.92;;;21.70;56.90;;;;;;5059564;28;20081;-35
2022/10/24 11:59:29;;;;;;;3.35;3.00;;;21.70;56.80;;;;;;5061795;28;20115;-36
2022/10/24 12:01:59;;;;;;;2.88;2.67;;;21.70;56.90;;;;;;5073069;28;20037;-36
2022/10/24 12:04:57;;;;;;;3.13;2.83;;;21.80;57.00;;;;;;5070635;28;20154;-35
2022/10/24 12:07:50;;;;;;;3.03;2.60;;;21.80;57.00;;;;;;5092454;28;20051;-35
2022/10/24 12:10:36;;;;;;;2.90;2.58;;;21.80;56.70;;;;;;5071480;28;20083;-35
2022/10/24 12:13:22;;;;;;;4.55;3.03;;;21.80;56.70;;;;;;5094637;28;20083;-35
2022/10/24 12:16:26;;;;;;;2.95;2.70;;;21.80;56.60;;;;;;5105834;28;20054;-35
2022/10/24 12:19:00;;;;;;;4.13;2.92;;;21.70;56.50;;;;;;5085552;28;20036;-35
2022/10/24 12:21:27;;;;;;;3.15;2.83;;;21.70;56.40;;;;;;5092966;28;20023;-35
2022/10/24 12:23:55;;;;;;;3.22;2.92;;;21.70;56.30;;;;;;5093641;28;20028;-35
2022/10/24 12:26:29;;;;;;;3.40;2.80;;;21.70;56.20;;;;;;5138161;27;20075;-35
2022/10/24 12:28:56;;;;;;;3.38;3.00;;;21.70;56.20;;;;;;5117907;28;20024;-35
2022/10/24 12:31:30;;;;;;;3.78;2.95;;;21.60;56.00;;;;;;5112094;28;20132;-35
2022/10/24 12:34:18;;;;;;;4.07;3.03;;;21.60;56.00;;;;;;5116806;28;20033;-35
2022/10/24 12:37:04;;;;;;;4.75;3.08;;;21.60;55.90;;;;;;5086803;28;20024;-35
2022/10/24 12:39:35;;;;;;;3.50;3.20;;;21.60;55.90;;;;;;5100064;28;20024;-35
2022/10/24 12:42:01;;;;;;;3.47;3.08;;;21.60;55.90;;;;;;5117467;27;20543;-35
2022/10/24 12:44:33;;;;;;;3.75;3.22;;;21.50;55.90;;;;;;5094395;28;20020;-35
2022/10/24 12:47:24;;;;;;;3.50;3.20;;;21.50;55.90;;;;;;5090757;28;20029;-35
2022/10/24 12:49:50;;;;;;;3.67;3.30;;;21.50;55.80;;;;;;5132801;27;20427;-35
2022/10/24 12:52:31;;;;;;;3.58;3.25;;;21.40;55.80;;;;;;5103732;28;20031;-35
2022/10/24 12:54:58;;;;;;;3.90;3.30;;;21.40;55.80;;;;;;5097171;28;20016;-35
2022/10/24 12:57:27;;;;;;;3.30;3.00;;;21.40;55.80;;;;;;5103928;28;20105;-35
2022/10/24 12:59:58;;;;;;;3.30;3.00;;;21.40;55.80;;;;;;5129253;27;20028;-35
2022/10/24 13:02:27;;;;;;;3.60;3.30;;;21.30;55.70;;;;;;5096966;28;20803;-35
2022/10/24 13:05:16;;;;;;;3.50;3.20;;;21.30;55.70;;;;;;5119948;27;20037;-35
2022/10/24 13:07:51;;;;;;;3.70;3.30;;;21.30;55.70;;;;;;5131112;27;20035;-35
2022/10/24 13:10:35;;;;;;;3.70;3.03;;;21.30;55.70;;;;;;5089147;28;20565;-36